sensor_id;sensor_type;location;lat;lon;timestamp;pressure;altitude;pressure_sealevel;temperature;humidity
45523;BME280;31254;51.680;5.394;2023-05-03T00:02:06;102965.03;;;6.04;67.38
45523;BME280;31254;51.680;5.394;2023-05-03T00:04:32;102952.75;;;5.95;67.30
45523;BME280;31254;51.680;5.394;2023-05-03T00:07:00;102951.03;;;5.93;67.40
45523;BME280;31254;51.680;5.394;2023-05-03T00:09:26;102961.06;;;5.91;67.70
45523;BME280;31254;51.680;5.394;2023-05-03T00:11:53;102968.13;;;5.95;67.67
45523;BME280;31254;51.680;5.394;2023-05-03T00:14:24;102961.94;;;5.91;67.90
45523;BME280;31254;51.680;5.394;2023-05-03T00:16:51;102961.13;;;5.89;67.75
45523;BME280;31254;51.680;5.394;2023-05-03T00:19:18;102968.47;;;5.87;68.30
45523;BME280;31254;51.680;5.394;2023-05-03T00:21:56;102960.59;;;5.81;67.77
45523;BME280;31254;51.680;5.394;2023-05-03T00:24:23;102966.97;;;5.80;68.12
45523;BME280;31254;51.680;5.394;2023-05-03T00:26:52;102966.22;;;5.76;68.03
45523;BME280;31254;51.680;5.394;2023-05-03T00:29:18;102954.72;;;5.71;68.20
45523;BME280;31254;51.680;5.394;2023-05-03T00:31:47;102970.81;;;5.74;68.05
45523;BME280;31254;51.680;5.394;2023-05-03T00:34:14;102950.38;;;5.67;68.57
45523;BME280;31254;51.680;5.394;2023-05-03T00:36:40;102964.66;;;5.71;68.90
45523;BME280;31254;51.680;5.394;2023-05-03T00:39:07;102951.38;;;5.64;68.84
45523;BME280;31254;51.680;5.394;2023-05-03T00:41:37;102958.50;;;5.67;68.68
45523;BME280;31254;51.680;5.394;2023-05-03T00:44:06;102955.16;;;5.60;69.26
45523;BME280;31254;51.680;5.394;2023-05-03T00:46:33;102970.28;;;5.66;69.26
45523;BME280;31254;51.680;5.394;2023-05-03T00:49:03;102953.63;;;5.55;69.60
45523;BME280;31254;51.680;5.394;2023-05-03T00:51:32;102956.19;;;5.58;69.85
45523;BME280;31254;51.680;5.394;2023-05-03T00:53:59;102962.41;;;5.60;69.60
45523;BME280;31254;51.680;5.394;2023-05-03T00:56:27;102946.50;;;5.52;69.45
45523;BME280;31254;51.680;5.394;2023-05-03T00:59:00;102925.81;;;5.29;69.45
45523;BME280;31254;51.680;5.394;2023-05-03T01:01:27;102946.97;;;5.41;69.64
45523;BME280;31254;51.680;5.394;2023-05-03T01:03:56;102947.03;;;5.40;69.53
45523;BME280;31254;51.680;5.394;2023-05-03T01:17:17;102954.59;;;5.31;69.57
45523;BME280;31254;51.680;5.394;2023-05-03T01:19:54;102914.13;;;5.06;70.16
45523;BME280;31254;51.680;5.394;2023-05-03T01:22:36;102962.09;;;5.25;69.51
45523;BME280;31254;51.680;5.394;2023-05-03T01:25:13;102956.19;;;5.15;70.17
45523;BME280;31254;51.680;5.394;2023-05-03T01:27:41;102965.06;;;5.19;69.64
45523;BME280;31254;51.680;5.394;2023-05-03T01:30:09;102953.09;;;5.02;69.56
45523;BME280;31254;51.680;5.394;2023-05-03T01:35:39;102970.78;;;5.11;69.61
45523;BME280;31254;51.680;5.394;2023-05-03T01:38:10;102961.06;;;5.05;70.09
45523;BME280;31254;51.680;5.394;2023-05-03T01:41:05;102966.41;;;5.07;70.18
45523;BME280;31254;51.680;5.394;2023-05-03T01:43:34;102962.97;;;5.03;70.21
45523;BME280;31254;51.680;5.394;2023-05-03T01:46:02;102947.13;;;4.94;69.90
45523;BME280;31254;51.680;5.394;2023-05-03T01:48:29;102947.25;;;4.91;70.45
45523;BME280;31254;51.680;5.394;2023-05-03T01:50:57;102952.53;;;4.94;70.62
45523;BME280;31254;51.680;5.394;2023-05-03T01:53:24;102946.34;;;4.90;70.90
45523;BME280;31254;51.680;5.394;2023-05-03T01:55:51;102968.50;;;5.00;70.34
45523;BME280;31254;51.680;5.394;2023-05-03T01:58:22;102971.25;;;4.99;70.55
45523;BME280;31254;51.680;5.394;2023-05-03T02:00:48;102972.28;;;4.96;70.77
45523;BME280;31254;51.680;5.394;2023-05-03T02:03:18;102968.66;;;4.95;71.17
45523;BME280;31254;51.680;5.394;2023-05-03T02:05:47;102964.28;;;4.93;71.17
45523;BME280;31254;51.680;5.394;2023-05-03T02:08:17;102965.22;;;4.92;71.36
45523;BME280;31254;51.680;5.394;2023-05-03T02:10:45;102953.94;;;4.81;71.10
45523;BME280;31254;51.680;5.394;2023-05-03T02:13:12;102970.75;;;4.89;70.90
45523;BME280;31254;51.680;5.394;2023-05-03T02:15:41;102957.41;;;4.84;70.79
45523;BME280;31254;51.680;5.394;2023-05-03T02:18:08;102958.25;;;4.86;71.07
45523;BME280;31254;51.680;5.394;2023-05-03T02:20:34;102961.00;;;4.85;71.42
45523;BME280;31254;51.680;5.394;2023-05-03T02:23:03;102953.94;;;4.81;71.12
45523;BME280;31254;51.680;5.394;2023-05-03T02:25:30;102926.94;;;4.57;71.34
45523;BME280;31254;51.680;5.394;2023-05-03T02:27:57;102950.72;;;4.71;71.78
45523;BME280;31254;51.680;5.394;2023-05-03T02:30:23;102942.84;;;4.65;71.72
45523;BME280;31254;51.680;5.394;2023-05-03T02:32:50;102922.66;;;4.51;71.39
45523;BME280;31254;51.680;5.394;2023-05-03T02:35:17;102950.97;;;4.65;71.16
45523;BME280;31254;51.680;5.394;2023-05-03T02:37:46;102933.13;;;4.61;71.23
45523;BME280;31254;51.680;5.394;2023-05-03T02:40:13;102908.31;;;4.49;71.55
45523;BME280;31254;51.680;5.394;2023-05-03T02:42:40;102922.34;;;4.59;71.88
45523;BME280;31254;51.680;5.394;2023-05-03T02:45:10;102901.03;;;4.51;71.69
45523;BME280;31254;51.680;5.394;2023-05-03T02:47:36;102906.38;;;4.53;71.16
45523;BME280;31254;51.680;5.394;2023-05-03T02:50:03;102910.00;;;4.52;71.76
45523;BME280;31254;51.680;5.394;2023-05-03T02:52:32;102886.19;;;4.39;71.74
45523;BME280;31254;51.680;5.394;2023-05-03T02:55:00;102889.69;;;4.42;71.82
45523;BME280;31254;51.680;5.394;2023-05-03T02:57:27;102888.72;;;4.44;71.81
45523;BME280;31254;51.680;5.394;2023-05-03T02:59:54;102846.50;;;4.18;71.60
45523;BME280;31254;51.680;5.394;2023-05-03T03:02:23;102886.41;;;4.33;71.43
45523;BME280;31254;51.680;5.394;2023-05-03T03:04:52;102916.31;;;4.52;71.77
45523;BME280;31254;51.680;5.394;2023-05-03T03:07:19;102925.41;;;4.50;72.01
45523;BME280;31254;51.680;5.394;2023-05-03T03:09:46;102920.34;;;4.40;71.84
45523;BME280;31254;51.680;5.394;2023-05-03T03:12:15;102926.91;;;4.35;72.09
45523;BME280;31254;51.680;5.394;2023-05-03T03:14:44;102920.56;;;4.36;72.12
45523;BME280;31254;51.680;5.394;2023-05-03T03:17:11;102916.97;;;4.35;72.36
45523;BME280;31254;51.680;5.394;2023-05-03T03:19:38;102936.41;;;4.45;72.85
45523;BME280;31254;51.680;5.394;2023-05-03T03:22:05;102953.56;;;4.44;72.12
45523;BME280;31254;51.680;5.394;2023-05-03T03:24:32;102943.75;;;4.42;72.52
45523;BME280;31254;51.680;5.394;2023-05-03T03:27:01;102941.00;;;4.43;73.19
45523;BME280;31254;51.680;5.394;2023-05-03T03:29:31;102941.03;;;4.42;72.74
45523;BME280;31254;51.680;5.394;2023-05-03T03:32:00;102922.47;;;4.32;72.68
45523;BME280;31254;51.680;5.394;2023-05-03T03:34:27;102935.88;;;4.35;72.85
45523;BME280;31254;51.680;5.394;2023-05-03T03:36:54;102923.50;;;4.30;72.68
45523;BME280;31254;51.680;5.394;2023-05-03T03:39:21;102935.94;;;4.34;73.31
45523;BME280;31254;51.680;5.394;2023-05-03T03:41:48;102920.09;;;4.25;72.97
45523;BME280;31254;51.680;5.394;2023-05-03T03:44:17;102937.06;;;4.28;73.37
45523;BME280;31254;51.680;5.394;2023-05-03T03:46:43;102929.94;;;4.26;73.40
45523;BME280;31254;51.680;5.394;2023-05-03T03:49:10;102927.28;;;4.24;72.87
45523;BME280;31254;51.680;5.394;2023-05-03T03:51:37;102935.41;;;4.24;73.41
45523;BME280;31254;51.680;5.394;2023-05-03T03:54:06;102910.72;;;4.10;73.74
45523;BME280;31254;51.680;5.394;2023-05-03T03:56:32;102924.97;;;4.15;73.15
45523;BME280;31254;51.680;5.394;2023-05-03T03:58:59;102944.56;;;4.20;73.27
45523;BME280;31254;51.680;5.394;2023-05-03T04:01:26;102932.75;;;4.22;72.80
45523;BME280;31254;51.680;5.394;2023-05-03T04:03:53;102936.31;;;4.25;72.64
45523;BME280;31254;51.680;5.394;2023-05-03T04:06:20;102941.72;;;4.25;73.01
45523;BME280;31254;51.680;5.394;2023-05-03T04:08:46;102927.59;;;4.16;72.95
45523;BME280;31254;51.680;5.394;2023-05-03T04:11:13;102948.09;;;4.22;72.67
45523;BME280;31254;51.680;5.394;2023-05-03T04:13:39;102932.00;;;4.19;72.68
45523;BME280;31254;51.680;5.394;2023-05-03T04:16:06;102945.22;;;4.27;72.65
45523;BME280;31254;51.680;5.394;2023-05-03T04:18:35;102940.81;;;4.24;73.17
45523;BME280;31254;51.680;5.394;2023-05-03T04:21:02;102937.34;;;4.20;73.08
45523;BME280;31254;51.680;5.394;2023-05-03T04:23:33;102947.94;;;4.27;73.14
45523;BME280;31254;51.680;5.394;2023-05-03T04:26:02;102946.03;;;4.29;73.18
45523;BME280;31254;51.680;5.394;2023-05-03T04:28:30;102936.94;;;4.31;72.79
45523;BME280;31254;51.680;5.394;2023-05-03T04:30:58;102948.56;;;4.33;72.85
45523;BME280;31254;51.680;5.394;2023-05-03T04:33:26;102948.41;;;4.38;73.12
45523;BME280;31254;51.680;5.394;2023-05-03T04:35:56;102947.38;;;4.40;72.80
45523;BME280;31254;51.680;5.394;2023-05-03T04:38:23;102954.28;;;4.49;72.80
45523;BME280;31254;51.680;5.394;2023-05-03T04:40:52;102958.44;;;4.58;72.80
45523;BME280;31254;51.680;5.394;2023-05-03T04:43:19;102943.88;;;4.62;71.31
45523;BME280;31254;51.680;5.394;2023-05-03T04:45:46;102950.75;;;4.93;71.19
45523;BME280;31254;51.680;5.394;2023-05-03T04:48:13;102977.50;;;5.23;70.34
45523;BME280;31254;51.680;5.394;2023-05-03T04:50:39;102977.13;;;5.75;69.15
45523;BME280;31254;51.680;5.394;2023-05-03T04:53:06;102975.81;;;6.45;66.87
45523;BME280;31254;51.680;5.394;2023-05-03T04:55:32;102992.63;;;7.64;64.09
45523;BME280;31254;51.680;5.394;2023-05-03T04:58:01;102973.06;;;8.93;60.94
45523;BME280;31254;51.680;5.394;2023-05-03T05:00:28;102975.25;;;9.95;58.08
45523;BME280;31254;51.680;5.394;2023-05-03T05:02:54;102986.16;;;10.68;56.40
45523;BME280;31254;51.680;5.394;2023-05-03T05:05:23;102983.06;;;11.16;55.37
45523;BME280;31254;51.680;5.394;2023-05-03T05:07:50;102976.78;;;11.68;54.09
45523;BME280;31254;51.680;5.394;2023-05-03T05:10:17;102983.88;;;11.98;53.64
45523;BME280;31254;51.680;5.394;2023-05-03T05:12:43;102955.66;;;12.11;52.78
45523;BME280;31254;51.680;5.394;2023-05-03T05:15:10;102969.13;;;12.52;52.14
45523;BME280;31254;51.680;5.394;2023-05-03T05:17:38;102977.34;;;13.26;50.88
45523;BME280;31254;51.680;5.394;2023-05-03T05:20:06;102962.63;;;14.11;49.18
45523;BME280;31254;51.680;5.394;2023-05-03T05:22:41;102967.78;;;14.38;49.08
45523;BME280;31254;51.680;5.394;2023-05-03T05:25:08;102974.03;;;14.86;48.36
45523;BME280;31254;51.680;5.394;2023-05-03T05:27:36;102972.00;;;15.54;47.23
45523;BME280;31254;51.680;5.394;2023-05-03T05:30:07;102970.38;;;16.05;46.09
45523;BME280;31254;51.680;5.394;2023-05-03T05:32:34;102973.25;;;16.24;45.60
45523;BME280;31254;51.680;5.394;2023-05-03T05:35:01;102972.53;;;16.53;44.75
45523;BME280;31254;51.680;5.394;2023-05-03T05:37:28;102974.94;;;17.08;43.99
45523;BME280;31254;51.680;5.394;2023-05-03T05:39:56;102974.72;;;17.50;43.16
45523;BME280;31254;51.680;5.394;2023-05-03T05:42:24;102973.56;;;17.82;42.45
45523;BME280;31254;51.680;5.394;2023-05-03T05:44:52;102972.38;;;18.14;42.00
45523;BME280;31254;51.680;5.394;2023-05-03T05:47:19;102980.44;;;18.45;41.59
45523;BME280;31254;51.680;5.394;2023-05-03T05:49:47;102979.06;;;18.59;41.21
45523;BME280;31254;51.680;5.394;2023-05-03T05:52:16;102978.31;;;19.22;40.40
45523;BME280;31254;51.680;5.394;2023-05-03T05:54:43;102970.28;;;19.29;40.21
45523;BME280;31254;51.680;5.394;2023-05-03T05:57:10;102965.19;;;19.24;40.21
45523;BME280;31254;51.680;5.394;2023-05-03T05:59:38;102976.72;;;18.64;39.03
45523;BME280;31254;51.680;5.394;2023-05-03T06:02:06;102961.38;;;18.52;38.17
45523;BME280;31254;51.680;5.394;2023-05-03T06:04:41;102984.19;;;18.54;37.59
45523;BME280;31254;51.680;5.394;2023-05-03T06:07:13;102966.47;;;18.84;38.63
45523;BME280;31254;51.680;5.394;2023-05-03T06:09:42;102975.50;;;19.50;37.79
45523;BME280;31254;51.680;5.394;2023-05-03T06:12:09;102975.19;;;19.53;38.49
45523;BME280;31254;51.680;5.394;2023-05-03T06:14:38;102960.41;;;19.62;37.75
45523;BME280;31254;51.680;5.394;2023-05-03T06:17:17;102964.38;;;20.22;37.31
45523;BME280;31254;51.680;5.394;2023-05-03T06:19:43;102954.88;;;19.80;37.64
45523;BME280;31254;51.680;5.394;2023-05-03T06:22:10;102963.22;;;20.06;37.59
45523;BME280;31254;51.680;5.394;2023-05-03T06:24:39;102966.19;;;19.87;37.43
45523;BME280;31254;51.680;5.394;2023-05-03T06:27:06;102949.78;;;19.94;37.36
45523;BME280;31254;51.680;5.394;2023-05-03T06:29:35;102956.34;;;19.21;37.73
45523;BME280;31254;51.680;5.394;2023-05-03T06:32:02;102957.63;;;19.62;37.27
45523;BME280;31254;51.680;5.394;2023-05-03T06:34:30;102944.47;;;20.00;37.04
45523;BME280;31254;51.680;5.394;2023-05-03T06:36:57;102963.00;;;20.00;36.85
45523;BME280;31254;51.680;5.394;2023-05-03T06:39:24;102955.13;;;20.39;36.13
45523;BME280;31254;51.680;5.394;2023-05-03T06:41:52;102937.81;;;20.45;36.13
45523;BME280;31254;51.680;5.394;2023-05-03T06:44:20;102950.09;;;21.12;35.40
45523;BME280;31254;51.680;5.394;2023-05-03T06:46:47;102947.97;;;20.63;35.89
45523;BME280;31254;51.680;5.394;2023-05-03T06:49:13;102927.31;;;20.92;35.62
45523;BME280;31254;51.680;5.394;2023-05-03T06:51:40;102952.44;;;21.49;35.09
45523;BME280;31254;51.680;5.394;2023-05-03T06:54:07;102934.81;;;21.08;34.85
45523;BME280;31254;51.680;5.394;2023-05-03T06:56:37;102949.91;;;21.05;34.94
45523;BME280;31254;51.680;5.394;2023-05-03T06:59:04;102944.94;;;21.25;34.49
45523;BME280;31254;51.680;5.394;2023-05-03T07:01:33;102943.47;;;20.96;34.91
45523;BME280;31254;51.680;5.394;2023-05-03T07:04:00;102945.44;;;21.29;34.64
45523;BME280;31254;51.680;5.394;2023-05-03T07:06:27;102961.16;;;21.79;33.99
45523;BME280;31254;51.680;5.394;2023-05-03T07:08:53;102940.97;;;22.18;34.04
45523;BME280;31254;51.680;5.394;2023-05-03T07:11:23;102942.13;;;22.88;32.53
45523;BME280;31254;51.680;5.394;2023-05-03T07:13:50;102925.34;;;23.05;31.95
45523;BME280;31254;51.680;5.394;2023-05-03T07:16:18;102923.28;;;23.99;31.12
45523;BME280;31254;51.680;5.394;2023-05-03T07:18:48;102948.13;;;23.40;31.27
45523;BME280;31254;51.680;5.394;2023-05-03T07:21:15;102951.88;;;22.44;32.56
45523;BME280;31254;51.680;5.394;2023-05-03T07:23:43;102946.31;;;22.92;32.28
45523;BME280;31254;51.680;5.394;2023-05-03T07:26:09;102943.53;;;22.92;32.25
45523;BME280;31254;51.680;5.394;2023-05-03T07:28:36;102932.34;;;23.00;32.28
45523;BME280;31254;51.680;5.394;2023-05-03T07:31:05;102922.53;;;22.81;31.76
45523;BME280;31254;51.680;5.394;2023-05-03T07:33:35;102930.44;;;22.61;32.28
45523;BME280;31254;51.680;5.394;2023-05-03T07:36:04;102896.56;;;22.50;31.63
45523;BME280;31254;51.680;5.394;2023-05-03T07:38:31;102925.66;;;22.78;31.48
45523;BME280;31254;51.680;5.394;2023-05-03T07:41:01;102922.78;;;22.63;31.74
45523;BME280;31254;51.680;5.394;2023-05-03T07:43:29;102927.91;;;22.83;31.30
45523;BME280;31254;51.680;5.394;2023-05-03T07:46:00;102918.03;;;22.72;31.31
45523;BME280;31254;51.680;5.394;2023-05-03T07:48:29;102923.34;;;22.51;31.61
45523;BME280;31254;51.680;5.394;2023-05-03T07:50:58;102910.13;;;22.92;31.37
45523;BME280;31254;51.680;5.394;2023-05-03T07:53:29;102839.47;;;24.01;29.46
45523;BME280;31254;51.680;5.394;2023-05-03T07:55:56;102895.97;;;25.21;28.13
45523;BME280;31254;51.680;5.394;2023-05-03T07:58:23;102887.50;;;25.14;28.37
45523;BME280;31254;51.680;5.394;2023-05-03T08:01:05;102904.81;;;24.13;29.20
45523;BME280;31254;51.680;5.394;2023-05-03T08:03:32;102885.41;;;23.44;29.95
45523;BME280;31254;51.680;5.394;2023-05-03T08:06:05;102881.56;;;22.67;30.36
45523;BME280;31254;51.680;5.394;2023-05-03T08:08:33;102880.50;;;23.69;29.31
45523;BME280;31254;51.680;5.394;2023-05-03T08:11:03;102875.78;;;23.93;28.54
45523;BME280;31254;51.680;5.394;2023-05-03T08:13:29;102883.19;;;24.45;27.77
45523;BME280;31254;51.680;5.394;2023-05-03T08:15:56;102854.69;;;23.75;28.72
45523;BME280;31254;51.680;5.394;2023-05-03T08:18:23;102893.31;;;22.86;30.05
45523;BME280;31254;51.680;5.394;2023-05-03T08:20:50;102894.38;;;22.37;30.25
45523;BME280;31254;51.680;5.394;2023-05-03T08:23:19;102891.31;;;21.99;30.61
45523;BME280;31254;51.680;5.394;2023-05-03T08:25:47;102885.44;;;21.94;30.43
45523;BME280;31254;51.680;5.394;2023-05-03T08:28:14;102885.53;;;20.93;31.51
45523;BME280;31254;51.680;5.394;2023-05-03T08:30:40;102887.97;;;20.88;31.67
45523;BME280;31254;51.680;5.394;2023-05-03T08:33:07;102877.03;;;20.87;31.40
45523;BME280;31254;51.680;5.394;2023-05-03T08:35:37;102871.19;;;21.23;31.29
45523;BME280;31254;51.680;5.394;2023-05-03T08:38:04;102874.00;;;21.80;30.93
45523;BME280;31254;51.680;5.394;2023-05-03T08:40:33;102872.50;;;22.73;30.02
45523;BME280;31254;51.680;5.394;2023-05-03T08:43:08;102868.44;;;21.88;30.81
45523;BME280;31254;51.680;5.394;2023-05-03T08:45:41;102878.44;;;22.93;30.00
45523;BME280;31254;51.680;5.394;2023-05-03T08:48:07;102874.13;;;22.91;29.46
45523;BME280;31254;51.680;5.394;2023-05-03T08:50:34;102883.78;;;20.92;30.93
45523;BME280;31254;51.680;5.394;2023-05-03T08:53:08;102892.13;;;20.92;31.21
45523;BME280;31254;51.680;5.394;2023-05-03T08:55:42;102888.84;;;21.05;31.39
45523;BME280;31254;51.680;5.394;2023-05-03T08:58:09;102886.50;;;21.60;30.81
45523;BME280;31254;51.680;5.394;2023-05-03T09:00:39;102895.19;;;21.57;30.82
45523;BME280;31254;51.680;5.394;2023-05-03T09:03:13;102896.22;;;21.64;30.78
45523;BME280;31254;51.680;5.394;2023-05-03T09:05:39;102891.97;;;21.02;32.02
45523;BME280;31254;51.680;5.394;2023-05-03T09:08:10;102898.47;;;20.76;31.92
45523;BME280;31254;51.680;5.394;2023-05-03T09:10:42;102887.66;;;20.22;32.85
45523;BME280;31254;51.680;5.394;2023-05-03T09:13:11;102894.06;;;20.23;32.94
45523;BME280;31254;51.680;5.394;2023-05-03T09:15:38;102899.03;;;19.85;33.25
45523;BME280;31254;51.680;5.394;2023-05-03T09:18:31;102904.25;;;19.16;34.55
45523;BME280;31254;51.680;5.394;2023-05-03T09:20:57;102901.41;;;19.26;34.11
45523;BME280;31254;51.680;5.394;2023-05-03T09:25:51;102893.59;;;19.57;34.18
45523;BME280;31254;51.680;5.394;2023-05-03T09:28:19;102855.09;;;19.28;34.29
45523;BME280;31254;51.680;5.394;2023-05-03T09:30:47;102899.34;;;18.82;35.41
45523;BME280;31254;51.680;5.394;2023-05-03T09:33:14;102900.78;;;17.83;36.76
45523;BME280;31254;51.680;5.394;2023-05-03T09:36:02;102900.06;;;17.52;37.78
45523;BME280;31254;51.680;5.394;2023-05-03T09:38:31;102898.47;;;17.69;37.39
45523;BME280;31254;51.680;5.394;2023-05-03T09:40:59;102899.91;;;17.53;37.49
45523;BME280;31254;51.680;5.394;2023-05-03T09:43:27;102896.59;;;17.21;37.96
45523;BME280;31254;51.680;5.394;2023-05-03T09:46:10;102885.56;;;17.21;38.17
45523;BME280;31254;51.680;5.394;2023-05-03T09:48:38;102885.81;;;16.88;38.80
45523;BME280;31254;51.680;5.394;2023-05-03T09:51:06;102868.66;;;16.75;39.34
45523;BME280;31254;51.680;5.394;2023-05-03T09:53:34;102867.53;;;17.26;38.65
45523;BME280;31254;51.680;5.394;2023-05-03T09:56:02;102875.06;;;16.85;39.03
45523;BME280;31254;51.680;5.394;2023-05-03T09:58:31;102847.16;;;16.18;40.02
45523;BME280;31254;51.680;5.394;2023-05-03T10:01:00;102882.31;;;16.45;39.96
45523;BME280;31254;51.680;5.394;2023-05-03T10:03:45;102899.59;;;16.48;40.11
45523;BME280;31254;51.680;5.394;2023-05-03T10:06:37;102877.13;;;16.93;39.60
45523;BME280;31254;51.680;5.394;2023-05-03T10:09:17;102892.78;;;16.92;39.60
45523;BME280;31254;51.680;5.394;2023-05-03T10:11:51;102889.59;;;16.97;39.79
45523;BME280;31254;51.680;5.394;2023-05-03T10:14:21;102872.97;;;16.77;39.80
45523;BME280;31254;51.680;5.394;2023-05-03T10:16:51;102893.38;;;16.96;40.13
45523;BME280;31254;51.680;5.394;2023-05-03T10:19:28;102888.47;;;17.48;39.40
45523;BME280;31254;51.680;5.394;2023-05-03T10:22:05;102890.50;;;17.46;39.12
45523;BME280;31254;51.680;5.394;2023-05-03T10:27:24;102894.84;;;17.10;39.49
45523;BME280;31254;51.680;5.394;2023-05-03T10:29:51;102870.16;;;17.08;39.61
45523;BME280;31254;51.680;5.394;2023-05-03T10:32:37;102901.81;;;17.24;39.75
45523;BME280;31254;51.680;5.394;2023-05-03T10:35:12;102901.53;;;17.07;39.77
45523;BME280;31254;51.680;5.394;2023-05-03T10:37:40;102895.53;;;16.92;40.19
45523;BME280;31254;51.680;5.394;2023-05-03T10:42:43;102867.56;;;16.56;40.07
45523;BME280;31254;51.680;5.394;2023-05-03T10:45:22;102881.19;;;16.58;40.73
45523;BME280;31254;51.680;5.394;2023-05-03T10:50:38;102866.19;;;16.31;40.93
45523;BME280;31254;51.680;5.394;2023-05-03T10:53:06;102878.38;;;16.38;40.68
45523;BME280;31254;51.680;5.394;2023-05-03T10:55:35;102856.72;;;16.24;40.28
45523;BME280;31254;51.680;5.394;2023-05-03T10:58:04;102828.88;;;16.17;40.80
45523;BME280;31254;51.680;5.394;2023-05-03T11:00:41;102869.75;;;16.53;40.79
45523;BME280;31254;51.680;5.394;2023-05-03T11:05:49;102862.09;;;16.66;40.70
45523;BME280;31254;51.680;5.394;2023-05-03T11:08:20;102867.97;;;17.02;40.22
45523;BME280;31254;51.680;5.394;2023-05-03T11:10:56;102868.31;;;17.18;39.83
45523;BME280;31254;51.680;5.394;2023-05-03T11:13:27;102866.69;;;17.16;39.37
45523;BME280;31254;51.680;5.394;2023-05-03T11:15:56;102862.59;;;17.20;39.50
45523;BME280;31254;51.680;5.394;2023-05-03T11:18:25;102841.81;;;17.55;39.48
45523;BME280;31254;51.680;5.394;2023-05-03T11:21:01;102842.19;;;17.80;39.21
45523;BME280;31254;51.680;5.394;2023-05-03T11:23:30;102855.63;;;17.45;39.76
45523;BME280;31254;51.680;5.394;2023-05-03T11:25:58;102839.69;;;17.20;39.97
45523;BME280;31254;51.680;5.394;2023-05-03T11:28:27;102839.81;;;16.98;40.24
45523;BME280;31254;51.680;5.394;2023-05-03T11:30:58;102829.22;;;16.94;39.95
45523;BME280;31254;51.680;5.394;2023-05-03T11:33:28;102814.88;;;16.90;40.45
45523;BME280;31254;51.680;5.394;2023-05-03T11:35:57;102833.03;;;17.03;40.33
45523;BME280;31254;51.680;5.394;2023-05-03T11:38:24;102827.66;;;17.21;40.12
45523;BME280;31254;51.680;5.394;2023-05-03T11:40:51;102789.31;;;17.17;39.91
45523;BME280;31254;51.680;5.394;2023-05-03T11:43:17;102814.00;;;17.29;40.00
45523;BME280;31254;51.680;5.394;2023-05-03T11:45:45;102819.06;;;17.43;39.75
45523;BME280;31254;51.680;5.394;2023-05-03T11:48:16;102815.16;;;17.16;39.78
45523;BME280;31254;51.680;5.394;2023-05-03T11:50:47;102822.72;;;17.14;40.04
45523;BME280;31254;51.680;5.394;2023-05-03T11:53:17;102797.63;;;16.88;40.28
45523;BME280;31254;51.680;5.394;2023-05-03T11:55:49;102809.34;;;16.90;40.22
45523;BME280;31254;51.680;5.394;2023-05-03T11:58:21;102800.38;;;16.98;40.51
45523;BME280;31254;51.680;5.394;2023-05-03T12:00:56;102805.00;;;17.27;40.17
45523;BME280;31254;51.680;5.394;2023-05-03T12:03:24;102788.16;;;17.20;39.85
45523;BME280;31254;51.680;5.394;2023-05-03T12:05:59;102797.03;;;17.24;40.16
45523;BME280;31254;51.680;5.394;2023-05-03T12:08:32;102789.44;;;17.45;39.79
45523;BME280;31254;51.680;5.394;2023-05-03T12:11:06;102780.94;;;17.66;39.65
45523;BME280;31254;51.680;5.394;2023-05-03T12:13:36;102769.47;;;18.08;39.10
45523;BME280;31254;51.680;5.394;2023-05-03T12:16:09;102766.81;;;18.17;39.22
45523;BME280;31254;51.680;5.394;2023-05-03T12:21:13;102772.66;;;17.66;39.33
45523;BME280;31254;51.680;5.394;2023-05-03T12:23:44;102760.84;;;17.94;39.33
45523;BME280;31254;51.680;5.394;2023-05-03T12:26:12;102765.09;;;17.68;39.40
45523;BME280;31254;51.680;5.394;2023-05-03T12:28:49;102762.72;;;17.36;39.77
45523;BME280;31254;51.680;5.394;2023-05-03T12:31:21;102759.34;;;17.52;39.89
45523;BME280;31254;51.680;5.394;2023-05-03T12:33:48;102747.88;;;17.57;39.80
45523;BME280;31254;51.680;5.394;2023-05-03T12:36:36;102759.50;;;17.50;39.12
45523;BME280;31254;51.680;5.394;2023-05-03T12:39:04;102741.63;;;17.54;39.08
45523;BME280;31254;51.680;5.394;2023-05-03T12:41:35;102741.75;;;17.63;38.76
45523;BME280;31254;51.680;5.394;2023-05-03T12:44:05;102716.25;;;17.51;38.81
45523;BME280;31254;51.680;5.394;2023-05-03T12:46:36;102725.66;;;17.58;38.27
45523;BME280;31254;51.680;5.394;2023-05-03T12:49:03;102728.22;;;17.69;38.21
45523;BME280;31254;51.680;5.394;2023-05-03T12:51:34;102714.06;;;17.92;38.58
45523;BME280;31254;51.680;5.394;2023-05-03T12:54:01;102719.19;;;17.77;38.46
45523;BME280;31254;51.680;5.394;2023-05-03T12:56:35;102721.28;;;17.55;38.67
45523;BME280;31254;51.680;5.394;2023-05-03T12:59:06;102705.94;;;17.43;38.81
45523;BME280;31254;51.680;5.394;2023-05-03T13:01:52;102698.47;;;17.63;38.66
45523;BME280;31254;51.680;5.394;2023-05-03T13:04:22;102704.03;;;17.81;37.95
45523;BME280;31254;51.680;5.394;2023-05-03T13:06:54;102701.56;;;17.88;37.98
45523;BME280;31254;51.680;5.394;2023-05-03T13:09:25;102707.34;;;17.85;38.08
45523;BME280;31254;51.680;5.394;2023-05-03T13:12:13;102692.88;;;17.73;38.03
45523;BME280;31254;51.680;5.394;2023-05-03T13:14:40;102697.16;;;17.67;37.99
45523;BME280;31254;51.680;5.394;2023-05-03T13:17:08;102688.03;;;17.57;38.01
45523;BME280;31254;51.680;5.394;2023-05-03T13:19:35;102692.69;;;17.57;38.19
45523;BME280;31254;51.680;5.394;2023-05-03T13:22:03;102631.41;;;17.25;38.58
45523;BME280;31254;51.680;5.394;2023-05-03T13:24:32;102684.47;;;17.75;38.35
45523;BME280;31254;51.680;5.394;2023-05-03T13:27:03;102658.41;;;17.87;38.35
45523;BME280;31254;51.680;5.394;2023-05-03T13:29:30;102675.94;;;17.96;38.05
45523;BME280;31254;51.680;5.394;2023-05-03T13:31:57;102656.41;;;17.79;38.53
45523;BME280;31254;51.680;5.394;2023-05-03T13:34:29;102603.78;;;17.63;38.22